createdAt,value
2019-06-27T00:00:29.454Z,18.20
2019-06-27T00:01:13.055Z,18.20
2019-06-27T00:01:50.824Z,18.20
2019-06-27T00:02:28.657Z,18.20
2019-06-27T00:03:07.124Z,18.20
2019-06-27T00:03:45.682Z,18.20
2019-06-27T00:04:24.675Z,18.20
2019-06-27T00:05:03.289Z,18.20
2019-06-27T00:05:41.358Z,18.20
2019-06-27T00:06:19.692Z,18.20
2019-06-27T00:06:57.572Z,18.20
2019-06-27T00:07:35.582Z,18.20
2019-06-27T00:08:14.344Z,18.20
2019-06-27T00:08:52.248Z,18.10
2019-06-27T00:09:30.351Z,18.10
2019-06-27T00:10:10.208Z,18.10
2019-06-27T00:10:48.882Z,18.10
2019-06-27T00:11:26.648Z,18.10
2019-06-27T00:12:05.610Z,18.00
2019-06-27T00:12:44.245Z,18.00
2019-06-27T00:13:22.116Z,18.00
2019-06-27T00:14:00.576Z,18.00
2019-06-27T00:14:38.331Z,18.00
2019-06-27T00:15:16.867Z,17.90
2019-06-27T00:15:54.808Z,17.90
2019-06-27T00:16:32.756Z,17.90
2019-06-27T00:17:10.656Z,17.90
2019-06-27T00:17:49.442Z,17.90
2019-06-27T00:18:27.433Z,17.90
2019-06-27T00:19:05.510Z,17.90
2019-06-27T00:19:43.649Z,17.90
2019-06-27T00:20:22.144Z,17.90
2019-06-27T00:21:01.050Z,17.90
2019-06-27T00:21:38.852Z,17.90
2019-06-27T00:22:16.839Z,17.90
2019-06-27T00:22:54.604Z,17.90
2019-06-27T00:23:35.672Z,17.90
2019-06-27T00:24:13.785Z,17.90
2019-06-27T00:24:51.280Z,17.90
2019-06-27T00:25:29.232Z,17.90
2019-06-27T00:26:06.849Z,17.90
2019-06-27T00:26:56.764Z,17.90
2019-06-27T00:27:25.020Z,17.90
2019-06-27T00:28:02.832Z,17.90
2019-06-27T00:28:40.303Z,17.90
2019-06-27T00:29:18.220Z,17.90
2019-06-27T00:29:56.448Z,17.80
2019-06-27T00:30:33.695Z,17.90
2019-06-27T00:31:11.863Z,17.80
2019-06-27T00:31:49.551Z,17.80
2019-06-27T00:32:27.225Z,17.80
2019-06-27T00:33:05.039Z,17.80
2019-06-27T00:33:43.419Z,17.80
2019-06-27T00:34:21.342Z,17.80
2019-06-27T00:34:59.090Z,17.80
2019-06-27T00:35:37.205Z,17.80
2019-06-27T00:36:14.714Z,17.80
2019-06-27T00:36:52.954Z,17.80
2019-06-27T00:37:30.868Z,17.80
2019-06-27T00:38:08.603Z,17.70
2019-06-27T00:38:46.825Z,17.70
2019-06-27T00:39:25.014Z,17.70
2019-06-27T00:40:02.289Z,17.70
2019-06-27T00:40:40.391Z,17.70
2019-06-27T00:41:20.215Z,17.70
2019-06-27T00:41:57.756Z,17.70
2019-06-27T00:42:36.176Z,17.70
2019-06-27T00:43:13.788Z,17.60
2019-06-27T00:43:50.958Z,17.70
2019-06-27T00:44:28.648Z,17.60
2019-06-27T00:45:06.865Z,17.60
2019-06-27T00:45:44.011Z,17.60
2019-06-27T00:46:22.367Z,17.50
2019-06-27T00:47:00.089Z,17.60
2019-06-27T00:47:36.958Z,17.60
2019-06-27T00:48:14.844Z,17.50
2019-06-27T00:48:53.263Z,17.50
2019-06-27T00:49:29.811Z,17.50
2019-06-27T00:50:08.508Z,17.50
2019-06-27T00:50:47.189Z,17.50
2019-06-27T00:51:24.899Z,17.40
2019-06-27T00:52:02.933Z,17.40
2019-06-27T00:52:40.876Z,17.40
2019-06-27T00:53:17.844Z,17.40
2019-06-27T00:53:55.970Z,17.40
2019-06-27T00:54:33.889Z,17.40
2019-06-27T00:55:11.199Z,17.40
2019-06-27T00:55:48.913Z,17.40
2019-06-27T00:56:26.837Z,17.40
2019-06-27T00:57:14.188Z,17.40
2019-06-27T00:57:43.887Z,17.50
2019-06-27T00:58:21.997Z,17.40
2019-06-27T00:58:59.661Z,17.40
2019-06-27T00:59:37.474Z,17.40
2019-06-27T01:00:15.840Z,17.40
2019-06-27T01:00:53.298Z,17.40
2019-06-27T01:01:31.831Z,17.30
2019-06-27T01:02:09.996Z,17.30
2019-06-27T01:02:47.007Z,17.30
2019-06-27T01:03:25.080Z,17.30
2019-06-27T01:04:07.561Z,17.30
2019-06-27T01:04:45.282Z,17.30
2019-06-27T01:05:23.460Z,17.30
2019-06-27T01:06:01.543Z,17.20
2019-06-27T01:06:39.161Z,17.20
2019-06-27T01:07:17.025Z,17.20
2019-06-27T01:07:54.498Z,17.20
2019-06-27T01:08:31.661Z,17.20
2019-06-27T01:09:09.547Z,17.20
2019-06-27T01:09:47.353Z,17.20
2019-06-27T01:10:24.423Z,17.20
2019-06-27T01:11:02.544Z,17.10
2019-06-27T01:11:40.601Z,17.10
2019-06-27T01:12:18.103Z,17.10
2019-06-27T01:12:56.315Z,17.10
2019-06-27T01:13:34.156Z,17.10
2019-06-27T01:14:11.713Z,17.10
2019-06-27T01:14:49.519Z,17.10
2019-06-27T01:15:27.327Z,17.10
2019-06-27T01:16:04.291Z,17.10
2019-06-27T01:16:42.165Z,17.10
2019-06-27T01:17:20.725Z,17.00
2019-06-27T01:17:58.623Z,17.00
2019-06-27T01:18:37.206Z,17.10
2019-06-27T01:19:15.267Z,17.10
2019-06-27T01:19:52.659Z,17.10
2019-06-27T01:20:30.409Z,17.10
2019-06-27T01:21:08.409Z,17.10
2019-06-27T01:21:45.626Z,17.10
2019-06-27T01:22:24.077Z,17.10
2019-06-27T01:23:02.482Z,17.10
2019-06-27T01:23:58.915Z,17.10
2019-06-27T01:24:37.317Z,17.10
2019-06-27T01:25:15.198Z,17.00
2019-06-27T01:25:52.181Z,17.10
2019-06-27T01:26:30.713Z,17.00
2019-06-27T01:27:08.477Z,17.10
2019-06-27T01:27:45.623Z,17.00
2019-06-27T01:28:23.757Z,17.00
2019-06-27T01:29:01.507Z,17.00
2019-06-27T01:29:38.779Z,17.00
2019-06-27T01:30:17.195Z,17.00
2019-06-27T01:30:55.109Z,17.00
2019-06-27T01:31:32.289Z,17.00
2019-06-27T01:32:10.827Z,17.00
2019-06-27T01:32:49.034Z,17.00
2019-06-27T01:33:26.638Z,17.00
2019-06-27T01:34:05.179Z,17.00
2019-06-27T01:34:43.267Z,17.00
2019-06-27T01:35:20.968Z,17.00
2019-06-27T01:35:59.378Z,17.00
2019-06-27T01:36:37.585Z,17.00
2019-06-27T01:37:15.127Z,17.00
2019-06-27T01:37:53.177Z,17.00
2019-06-27T01:38:31.049Z,17.00
2019-06-27T01:39:08.991Z,17.00
2019-06-27T01:39:47.142Z,17.00
2019-06-27T01:40:25.659Z,17.00
2019-06-27T01:41:02.959Z,17.00
2019-06-27T01:41:40.793Z,16.90
2019-06-27T01:42:19.225Z,16.90
2019-06-27T01:42:57.095Z,16.90
2019-06-27T01:43:34.969Z,16.90
2019-06-27T01:44:31.267Z,16.90
2019-06-27T01:45:16.668Z,16.90
2019-06-27T01:45:56.762Z,16.90
2019-06-27T01:46:34.909Z,16.90
2019-06-27T01:47:12.143Z,16.90
2019-06-27T01:47:50.135Z,16.90
2019-06-27T01:48:28.045Z,16.80
2019-06-27T01:49:05.199Z,16.80
2019-06-27T01:49:43.319Z,16.80
2019-06-27T01:50:21.749Z,16.80
2019-06-27T01:50:59.099Z,16.80
2019-06-27T01:51:36.755Z,16.80
2019-06-27T01:52:14.879Z,16.80
2019-06-27T01:52:52.636Z,16.80
2019-06-27T01:53:30.953Z,16.70
2019-06-27T01:54:09.253Z,16.70
2019-06-27T01:54:49.833Z,16.70
2019-06-27T01:55:28.035Z,16.60
2019-06-27T01:56:06.571Z,16.60
2019-06-27T01:56:44.410Z,16.60
2019-06-27T01:57:22.693Z,16.60
2019-06-27T01:58:01.035Z,16.60
2019-06-27T01:58:38.025Z,16.60
2019-06-27T01:59:15.865Z,16.60
2019-06-27T01:59:53.929Z,16.50
2019-06-27T02:00:31.846Z,16.50
2019-06-27T02:01:10.489Z,16.50
2019-06-27T02:01:48.533Z,16.60
2019-06-27T02:02:25.831Z,16.50
2019-06-27T02:03:03.707Z,16.50
2019-06-27T02:03:42.334Z,16.60
2019-06-27T02:04:19.383Z,16.60
2019-06-27T02:04:57.179Z,16.50
2019-06-27T02:05:35.251Z,16.50
2019-06-27T02:06:12.745Z,16.50
2019-06-27T02:06:51.004Z,16.50
2019-06-27T02:07:28.817Z,16.50
2019-06-27T02:08:06.267Z,16.50
2019-06-27T02:08:44.893Z,16.50
2019-06-27T02:09:22.892Z,16.50
2019-06-27T02:10:00.755Z,16.50
2019-06-27T02:10:39.161Z,16.50
2019-06-27T02:11:17.073Z,16.50
2019-06-27T02:11:55.110Z,16.40
2019-06-27T02:12:32.921Z,16.40
2019-06-27T02:13:30.265Z,16.40
2019-06-27T02:14:07.932Z,16.40
2019-06-27T02:14:46.495Z,16.40
2019-06-27T02:15:24.889Z,16.50
2019-06-27T02:16:02.252Z,16.50
2019-06-27T02:16:40.325Z,16.50
2019-06-27T02:17:18.621Z,16.50
2019-06-27T02:17:55.997Z,16.50
2019-06-27T02:18:33.828Z,16.50
2019-06-27T02:19:11.747Z,16.50
2019-06-27T02:19:49.398Z,16.50
2019-06-27T02:20:27.876Z,16.50
2019-06-27T02:21:05.853Z,16.50
2019-06-27T02:21:43.133Z,16.50
2019-06-27T02:22:20.525Z,16.50
2019-06-27T02:22:59.017Z,16.50
2019-06-27T02:23:36.788Z,16.50
2019-06-27T02:24:14.313Z,16.50
2019-06-27T02:24:52.559Z,16.50
2019-06-27T02:25:30.855Z,16.50
2019-06-27T02:26:09.469Z,16.40
2019-06-27T02:26:47.477Z,16.40
2019-06-27T02:27:25.387Z,16.40
2019-06-27T02:28:04.613Z,16.40
2019-06-27T02:28:42.958Z,16.40
2019-06-27T02:29:19.902Z,16.40
2019-06-27T02:29:58.169Z,16.40
2019-06-27T02:30:41.089Z,16.40
2019-06-27T02:31:19.045Z,16.40
2019-06-27T02:31:56.494Z,16.40
2019-06-27T02:32:34.351Z,16.40
2019-06-27T02:33:11.575Z,16.40
2019-06-27T02:33:49.069Z,16.40
2019-06-27T02:34:26.271Z,16.40
2019-06-27T02:35:03.422Z,16.40
2019-06-27T02:35:41.491Z,16.40
2019-06-27T02:36:19.371Z,16.40
2019-06-27T02:36:57.050Z,16.30
2019-06-27T02:37:35.159Z,16.30
2019-06-27T02:38:13.566Z,16.30
2019-06-27T02:38:50.497Z,16.30
2019-06-27T02:39:28.011Z,16.30
2019-06-27T02:40:06.398Z,16.30
2019-06-27T02:40:43.855Z,16.30
2019-06-27T02:41:21.793Z,16.30
2019-06-27T02:42:00.073Z,16.30
2019-06-27T02:42:37.331Z,16.20
2019-06-27T02:43:15.524Z,16.20
2019-06-27T02:43:53.408Z,16.20
2019-06-27T02:44:31.218Z,16.20
2019-06-27T02:45:09.400Z,16.20
2019-06-27T02:45:47.686Z,16.20
2019-06-27T02:46:24.960Z,16.10
2019-06-27T02:47:02.981Z,16.10
2019-06-27T02:47:40.460Z,16.10
2019-06-27T02:48:18.064Z,16.10
2019-06-27T02:48:56.591Z,16.10
2019-06-27T02:49:34.824Z,16.00
2019-06-27T02:50:12.878Z,16.10
2019-06-27T02:50:51.099Z,16.00
2019-06-27T02:51:28.987Z,16.00
2019-06-27T02:52:06.530Z,16.00
2019-06-27T02:52:44.905Z,16.00
2019-06-27T02:53:21.969Z,15.90
2019-06-27T02:53:59.151Z,15.90
2019-06-27T02:54:37.586Z,15.90
2019-06-27T02:55:15.834Z,15.90
2019-06-27T02:55:52.795Z,15.90
2019-06-27T02:56:30.877Z,15.90
2019-06-27T02:57:08.772Z,15.90
2019-06-27T02:57:46.325Z,15.90
2019-06-27T02:58:30.982Z,15.90
2019-06-27T02:59:04.887Z,15.80
2019-06-27T02:59:42.706Z,15.80
2019-06-27T03:00:21.270Z,15.80
2019-06-27T03:00:59.769Z,15.80
2019-06-27T03:01:37.573Z,15.80
2019-06-27T03:02:15.553Z,15.80
2019-06-27T03:02:53.743Z,15.80
2019-06-27T03:03:31.314Z,15.80
2019-06-27T03:04:09.206Z,15.80
2019-06-27T03:04:47.631Z,15.80
2019-06-27T03:05:25.189Z,15.80
2019-06-27T03:06:03.412Z,15.80
2019-06-27T03:06:40.837Z,15.80
2019-06-27T03:07:18.515Z,15.80
2019-06-27T03:07:56.757Z,15.70
2019-06-27T03:08:35.133Z,15.80
2019-06-27T03:09:12.013Z,15.80
2019-06-27T03:09:50.285Z,15.70
2019-06-27T03:10:27.806Z,15.80
2019-06-27T03:11:05.648Z,15.80
2019-06-27T03:11:43.138Z,15.80
2019-06-27T03:12:21.269Z,15.80
2019-06-27T03:12:58.455Z,15.80
2019-06-27T03:13:36.502Z,15.80
2019-06-27T03:14:15.026Z,15.80
2019-06-27T03:14:52.565Z,15.80
2019-06-27T03:15:30.686Z,15.80
2019-06-27T03:16:08.473Z,15.80
2019-06-27T03:16:45.642Z,15.80
2019-06-27T03:17:23.965Z,15.90
2019-06-27T03:18:01.853Z,15.90
2019-06-27T03:18:39.235Z,15.90
2019-06-27T03:19:17.087Z,15.90
2019-06-27T03:19:54.878Z,15.90
2019-06-27T03:20:32.821Z,16.00
2019-06-27T03:21:10.364Z,16.00
2019-06-27T03:21:48.150Z,15.90
2019-06-27T03:22:25.378Z,15.90
2019-06-27T03:23:09.026Z,15.90
2019-06-27T03:23:46.434Z,15.90
2019-06-27T03:24:23.708Z,15.90
2019-06-27T03:25:01.606Z,16.00
2019-06-27T03:25:40.022Z,16.00
2019-06-27T03:26:17.656Z,16.00
2019-06-27T03:26:55.242Z,16.10
2019-06-27T03:27:33.592Z,16.20
2019-06-27T03:28:11.317Z,16.20
2019-06-27T03:28:53.131Z,16.30
2019-06-27T03:29:29.378Z,16.40
2019-06-27T03:30:12.536Z,16.60
2019-06-27T03:30:50.000Z,16.70
2019-06-27T03:31:28.449Z,16.70
2019-06-27T03:32:06.106Z,16.70
2019-06-27T03:32:44.138Z,16.80
2019-06-27T03:33:21.924Z,16.90
2019-06-27T03:33:59.515Z,16.90
2019-06-27T03:34:37.869Z,17.10
2019-06-27T03:35:15.871Z,17.20
2019-06-27T03:35:53.018Z,17.30
2019-06-27T03:36:30.825Z,17.50
2019-06-27T03:37:08.737Z,17.60
2019-06-27T03:37:46.752Z,17.70
2019-06-27T03:38:24.314Z,17.80
2019-06-27T03:39:02.920Z,17.80
2019-06-27T03:39:40.166Z,17.80
2019-06-27T03:40:18.910Z,17.80
2019-06-27T03:40:57.097Z,17.90
2019-06-27T03:41:34.753Z,17.90
2019-06-27T03:42:12.233Z,17.90
2019-06-27T03:42:50.353Z,17.90
2019-06-27T03:43:27.703Z,17.80
2019-06-27T03:44:05.293Z,17.70
2019-06-27T03:44:43.296Z,17.60
2019-06-27T03:45:20.894Z,17.50
2019-06-27T03:45:58.903Z,17.40
2019-06-27T03:46:37.154Z,17.40
2019-06-27T03:47:14.422Z,17.40
2019-06-27T03:47:52.606Z,17.50
2019-06-27T03:48:30.632Z,17.50
2019-06-27T03:49:07.989Z,17.70
2019-06-27T03:49:46.099Z,17.90
2019-06-27T03:50:24.319Z,18.00
2019-06-27T03:51:01.963Z,18.00
2019-06-27T03:51:39.850Z,18.00
2019-06-27T03:52:17.636Z,18.10
2019-06-27T03:52:55.660Z,18.10
2019-06-27T03:53:34.332Z,18.00
2019-06-27T03:54:12.409Z,18.00
2019-06-27T03:54:49.829Z,18.00
2019-06-27T03:55:27.690Z,18.00
2019-06-27T03:56:05.818Z,18.00
2019-06-27T03:56:42.629Z,17.90
2019-06-27T03:57:20.931Z,17.90
2019-06-27T03:57:59.153Z,17.80
2019-06-27T03:58:36.909Z,17.80
2019-06-27T03:59:15.121Z,17.70
2019-06-27T03:59:52.631Z,17.70
2019-06-27T04:00:33.781Z,17.70
2019-06-27T04:01:12.077Z,17.70
2019-06-27T04:01:50.242Z,17.70
2019-06-27T04:02:27.531Z,17.60
2019-06-27T04:03:05.741Z,17.60
2019-06-27T04:03:43.764Z,17.60
2019-06-27T04:04:21.373Z,17.70
2019-06-27T04:04:59.000Z,17.80
2019-06-27T04:05:36.458Z,18.00
2019-06-27T04:06:13.037Z,18.10
2019-06-27T04:06:50.687Z,18.30
2019-06-27T04:07:28.693Z,18.40
2019-06-27T04:08:06.308Z,18.50
2019-06-27T04:08:44.053Z,18.50
2019-06-27T04:09:24.015Z,18.50
2019-06-27T04:10:02.015Z,18.50
2019-06-27T04:10:40.249Z,18.40
2019-06-27T04:11:18.272Z,18.40
2019-06-27T04:12:04.519Z,18.30
2019-06-27T04:12:42.401Z,18.20
2019-06-27T04:13:20.642Z,18.10
2019-06-27T04:13:58.224Z,18.00
2019-06-27T04:14:36.425Z,17.90
2019-06-27T04:15:14.937Z,17.80
2019-06-27T04:15:52.519Z,17.80
2019-06-27T04:16:30.389Z,17.80
2019-06-27T04:17:07.991Z,17.70
2019-06-27T04:17:45.497Z,17.60
2019-06-27T04:18:23.653Z,17.60
2019-06-27T04:19:02.252Z,17.60
2019-06-27T04:19:40.090Z,17.70
2019-06-27T04:20:18.249Z,17.80
2019-06-27T04:20:56.194Z,17.90
2019-06-27T04:21:33.427Z,18.10
2019-06-27T04:22:11.583Z,18.40
2019-06-27T04:22:50.005Z,18.70
2019-06-27T04:23:27.284Z,18.90
2019-06-27T04:24:05.478Z,19.10
2019-06-27T04:24:44.073Z,19.30
2019-06-27T04:25:21.796Z,19.50
2019-06-27T04:26:00.297Z,19.60
2019-06-27T04:26:38.446Z,19.70
2019-06-27T04:27:15.620Z,19.70
2019-06-27T04:27:54.131Z,19.60
2019-06-27T04:28:32.147Z,19.40
2019-06-27T04:29:09.511Z,19.30
2019-06-27T04:29:47.268Z,19.20
2019-06-27T04:30:25.329Z,19.10
2019-06-27T04:31:02.564Z,19.00
2019-06-27T04:31:39.613Z,18.90
2019-06-27T04:32:17.204Z,18.80
2019-06-27T04:33:13.730Z,18.80
2019-06-27T04:33:51.602Z,18.70
2019-06-27T04:34:29.500Z,18.40
2019-06-27T04:35:07.924Z,18.40
2019-06-27T04:35:46.009Z,18.30
2019-06-27T04:36:24.102Z,18.20
2019-06-27T04:37:02.181Z,18.20
2019-06-27T04:37:40.282Z,18.10
2019-06-27T04:38:18.297Z,18.10
2019-06-27T04:38:55.628Z,18.00
2019-06-27T04:39:34.244Z,18.00
2019-06-27T04:40:12.320Z,18.00
2019-06-27T04:40:49.439Z,17.90
2019-06-27T04:41:27.278Z,17.80
2019-06-27T04:42:05.163Z,17.70
2019-06-27T04:42:42.802Z,17.70
2019-06-27T04:43:21.380Z,17.60
2019-06-27T04:43:59.165Z,17.60
2019-06-27T04:44:36.831Z,17.60
2019-06-27T04:45:14.170Z,17.60
2019-06-27T04:45:51.983Z,17.50
2019-06-27T04:46:29.265Z,17.50
2019-06-27T04:47:07.569Z,17.40
2019-06-27T04:47:45.609Z,17.40
2019-06-27T04:48:22.771Z,17.40
2019-06-27T04:49:00.839Z,17.40
2019-06-27T04:49:38.966Z,17.40
2019-06-27T04:50:16.637Z,17.40
2019-06-27T04:50:54.793Z,17.40
2019-06-27T04:51:32.606Z,17.40
2019-06-27T04:52:10.512Z,17.40
2019-06-27T04:52:48.989Z,17.40
2019-06-27T04:53:27.073Z,17.40
2019-06-27T04:54:04.431Z,17.40
2019-06-27T04:54:42.422Z,17.40
2019-06-27T04:55:20.744Z,17.30
2019-06-27T04:55:58.110Z,17.30
2019-06-27T04:56:35.989Z,17.30
2019-06-27T04:57:14.197Z,17.30
2019-06-27T04:57:51.092Z,17.20
2019-06-27T04:58:28.946Z,17.10
2019-06-27T04:59:06.531Z,17.10
2019-06-27T04:59:53.044Z,17.10
2019-06-27T05:00:29.254Z,17.10
2019-06-27T05:01:07.484Z,17.00
2019-06-27T05:01:45.081Z,17.10
2019-06-27T05:02:22.911Z,17.10
2019-06-27T05:03:01.001Z,17.10
2019-06-27T05:03:38.949Z,17.00
2019-06-27T05:04:17.026Z,17.00
2019-06-27T05:04:55.193Z,17.00
2019-06-27T05:05:32.790Z,16.90
2019-06-27T05:06:11.060Z,16.90
2019-06-27T05:06:54.683Z,16.90
2019-06-27T05:07:32.110Z,16.90
2019-06-27T05:08:14.257Z,17.00
2019-06-27T05:08:50.115Z,17.00
2019-06-27T05:09:27.890Z,17.00
2019-06-27T05:10:06.234Z,17.00
2019-06-27T05:10:43.767Z,17.00
2019-06-27T05:11:21.293Z,17.00
2019-06-27T05:12:17.837Z,17.00
2019-06-27T05:12:55.958Z,17.00
2019-06-27T05:13:33.148Z,17.10
2019-06-27T05:14:11.426Z,17.10
2019-06-27T05:14:49.222Z,17.10
2019-06-27T05:15:26.730Z,17.10
2019-06-27T05:16:04.930Z,17.10
2019-06-27T05:16:42.363Z,17.20
2019-06-27T05:17:20.237Z,17.20
2019-06-27T05:17:58.266Z,17.20
2019-06-27T05:18:35.787Z,17.20
2019-06-27T05:19:13.428Z,17.20
2019-06-27T05:19:51.829Z,17.20
2019-06-27T05:20:30.426Z,17.20
2019-06-27T05:21:07.630Z,17.30
2019-06-27T05:21:45.688Z,17.30
2019-06-27T05:22:23.652Z,17.30
2019-06-27T05:23:01.090Z,17.20
2019-06-27T05:23:39.458Z,17.30
2019-06-27T05:24:17.254Z,17.30
2019-06-27T05:24:54.551Z,17.30
2019-06-27T05:25:32.510Z,17.40
2019-06-27T05:26:10.930Z,17.40
2019-06-27T05:26:48.178Z,17.40
2019-06-27T05:27:25.970Z,17.50
2019-06-27T05:28:03.529Z,17.50
2019-06-27T05:28:41.118Z,17.60
2019-06-27T05:29:19.099Z,17.70
2019-06-27T05:30:08.688Z,17.90
2019-06-27T05:30:36.511Z,18.00
2019-06-27T05:31:14.526Z,18.20
2019-06-27T05:31:52.294Z,18.30
2019-06-27T05:32:30.109Z,18.30
2019-06-27T05:33:08.654Z,18.30
2019-06-27T05:33:46.465Z,18.30
2019-06-27T05:34:24.335Z,18.30
2019-06-27T05:35:02.894Z,18.40
2019-06-27T05:35:41.099Z,18.40
2019-06-27T05:36:18.583Z,18.40
2019-06-27T05:36:56.730Z,18.40
2019-06-27T05:37:34.822Z,18.30
2019-06-27T05:38:12.296Z,18.30
2019-06-27T05:38:50.013Z,18.30
2019-06-27T05:39:28.224Z,18.20
2019-06-27T05:40:05.864Z,18.20
2019-06-27T05:40:44.276Z,18.30
2019-06-27T05:41:22.056Z,18.20
2019-06-27T05:41:59.303Z,18.20
2019-06-27T05:42:37.137Z,18.10
2019-06-27T05:43:14.924Z,18.10
2019-06-27T05:43:52.317Z,18.10
2019-06-27T05:44:29.387Z,17.90
2019-06-27T05:45:07.802Z,17.90
2019-06-27T05:45:45.636Z,17.90
2019-06-27T05:46:23.952Z,17.90
2019-06-27T05:47:02.064Z,17.80
2019-06-27T05:47:39.693Z,17.80
2019-06-27T05:48:17.721Z,17.70
2019-06-27T05:48:55.854Z,17.70
2019-06-27T05:49:33.386Z,17.70
2019-06-27T05:50:11.992Z,17.60
2019-06-27T05:50:50.070Z,17.60
2019-06-27T05:51:27.591Z,17.70
2019-06-27T05:52:05.430Z,17.70
2019-06-27T05:52:43.850Z,17.70
2019-06-27T05:53:21.897Z,17.60
2019-06-27T05:54:00.133Z,17.60
2019-06-27T05:54:38.063Z,17.50
2019-06-27T05:55:15.635Z,17.40
2019-06-27T05:55:54.010Z,17.50
2019-06-27T05:56:32.168Z,17.50
2019-06-27T05:57:09.684Z,17.40
2019-06-27T05:57:47.558Z,17.40
2019-06-27T05:58:25.981Z,17.30
2019-06-27T05:59:03.362Z,17.40
2019-06-27T05:59:41.826Z,17.40
2019-06-27T06:00:28.494Z,17.40
2019-06-27T06:00:59.216Z,17.40
2019-06-27T06:01:37.153Z,17.40
2019-06-27T06:02:15.465Z,17.40
2019-06-27T06:02:53.330Z,17.40
2019-06-27T06:03:31.848Z,17.50
2019-06-27T06:04:10.176Z,17.50
2019-06-27T06:04:47.973Z,17.60
2019-06-27T06:05:25.522Z,17.60
2019-06-27T06:06:08.540Z,17.60
2019-06-27T06:06:46.100Z,17.60
2019-06-27T06:07:24.707Z,17.60
2019-06-27T06:08:02.268Z,17.60
2019-06-27T06:08:40.110Z,17.60
2019-06-27T06:09:18.100Z,17.60
2019-06-27T06:09:56.156Z,17.60
2019-06-27T06:10:33.805Z,17.70
2019-06-27T06:11:11.615Z,17.70
2019-06-27T06:11:49.918Z,17.80
2019-06-27T06:12:27.207Z,17.80
2019-06-27T06:13:05.702Z,17.80
2019-06-27T06:13:44.117Z,17.80
2019-06-27T06:14:21.533Z,17.70
2019-06-27T06:14:59.625Z,17.70
2019-06-27T06:15:37.720Z,17.80
2019-06-27T06:16:15.290Z,17.90
2019-06-27T06:16:53.446Z,17.90
2019-06-27T06:17:31.438Z,17.90
2019-06-27T06:18:09.462Z,18.00
2019-06-27T06:18:47.816Z,18.00
2019-06-27T06:19:25.284Z,18.10
2019-06-27T06:20:02.550Z,18.10
2019-06-27T06:20:40.029Z,18.20
2019-06-27T06:21:17.740Z,18.30
2019-06-27T06:21:55.366Z,18.30
2019-06-27T06:22:32.435Z,18.30
2019-06-27T06:23:10.281Z,18.30
2019-06-27T06:24:06.375Z,18.30
2019-06-27T06:24:44.164Z,18.30
2019-06-27T06:25:22.155Z,18.30
2019-06-27T06:25:59.622Z,18.30
2019-06-27T06:26:38.083Z,18.40
2019-06-27T06:27:16.255Z,18.50
2019-06-27T06:27:54.114Z,18.50
2019-06-27T06:28:32.628Z,18.70
2019-06-27T06:29:10.510Z,18.70
2019-06-27T06:29:47.688Z,18.80
2019-06-27T06:30:25.875Z,18.80
2019-06-27T06:31:03.896Z,18.70
2019-06-27T06:31:41.794Z,18.70
2019-06-27T06:32:20.143Z,18.70
2019-06-27T06:32:59.674Z,18.70
2019-06-27T06:33:37.221Z,18.70
2019-06-27T06:34:15.678Z,18.60
2019-06-27T06:34:53.450Z,18.60
2019-06-27T06:35:31.394Z,18.60
2019-06-27T06:36:09.228Z,18.60
2019-06-27T06:36:47.981Z,18.60
2019-06-27T06:37:25.629Z,18.50
2019-06-27T06:38:03.506Z,18.50
2019-06-27T06:38:41.425Z,18.40
2019-06-27T06:39:18.756Z,18.40
2019-06-27T06:39:56.816Z,18.20
2019-06-27T06:40:34.670Z,18.20
2019-06-27T06:41:12.422Z,18.10
2019-06-27T06:41:50.538Z,18.00
2019-06-27T06:42:28.438Z,18.00
2019-06-27T06:43:06.379Z,18.00
2019-06-27T06:43:44.707Z,17.90
2019-06-27T06:44:22.495Z,17.90
2019-06-27T06:44:59.987Z,17.80
2019-06-27T06:45:38.257Z,17.80
2019-06-27T06:46:16.488Z,17.80
2019-06-27T06:46:54.524Z,17.80
2019-06-27T06:47:32.895Z,17.80
2019-06-27T06:48:10.847Z,17.80
2019-06-27T06:48:48.258Z,17.80
2019-06-27T06:49:26.035Z,17.80
2019-06-27T06:50:04.000Z,17.80
2019-06-27T06:50:41.487Z,17.90
2019-06-27T06:51:20.089Z,18.00
2019-06-27T06:51:57.507Z,18.10
2019-06-27T06:52:35.814Z,18.10
2019-06-27T06:53:13.240Z,18.20
2019-06-27T06:53:51.022Z,18.20
2019-06-27T06:54:28.747Z,18.20
2019-06-27T06:55:07.364Z,18.20
2019-06-27T06:55:44.892Z,18.30
2019-06-27T06:56:22.202Z,18.20
2019-06-27T06:57:00.470Z,18.20
2019-06-27T06:57:38.984Z,18.20
2019-06-27T06:58:16.406Z,18.10
2019-06-27T06:58:54.670Z,18.10
2019-06-27T06:59:33.111Z,18.10
2019-06-27T07:00:11.066Z,18.00
2019-06-27T07:01:00.887Z,18.00
2019-06-27T07:01:29.132Z,18.00
2019-06-27T07:02:06.613Z,18.00
2019-06-27T07:02:44.425Z,18.00
2019-06-27T07:03:22.575Z,17.90
2019-06-27T07:03:59.762Z,18.00
2019-06-27T07:04:37.715Z,17.90
2019-06-27T07:05:15.725Z,17.90
2019-06-27T07:05:52.872Z,18.00
2019-06-27T07:06:30.857Z,18.00
2019-06-27T07:07:09.110Z,18.00
2019-06-27T07:07:46.638Z,18.20
2019-06-27T07:08:25.034Z,18.20
2019-06-27T07:09:03.455Z,18.30
2019-06-27T07:09:40.954Z,18.40
2019-06-27T07:10:19.379Z,18.50
2019-06-27T07:10:57.283Z,18.70
2019-06-27T07:11:34.772Z,18.80
2019-06-27T07:12:13.204Z,18.80
2019-06-27T07:12:51.390Z,18.80
2019-06-27T07:13:28.631Z,18.90
2019-06-27T07:14:07.782Z,18.90
2019-06-27T07:14:45.626Z,19.00
2019-06-27T07:15:23.192Z,19.00
2019-06-27T07:16:01.328Z,19.10
2019-06-27T07:16:39.736Z,19.10
2019-06-27T07:17:17.006Z,19.20
2019-06-27T07:17:55.227Z,19.20
2019-06-27T07:18:33.831Z,19.30
2019-06-27T07:19:11.502Z,19.30
2019-06-27T07:19:49.296Z,19.40
2019-06-27T07:20:27.056Z,19.40
2019-06-27T07:21:04.649Z,19.40
2019-06-27T07:21:43.088Z,19.50
2019-06-27T07:22:21.252Z,19.50
2019-06-27T07:22:58.788Z,19.60
2019-06-27T07:23:37.204Z,19.60
2019-06-27T07:24:15.368Z,19.60
2019-06-27T07:24:52.538Z,19.70
2019-06-27T07:25:31.308Z,19.70
2019-06-27T07:26:09.475Z,19.70
2019-06-27T07:26:47.188Z,19.70
2019-06-27T07:27:25.465Z,19.60
2019-06-27T07:28:03.965Z,19.60
2019-06-27T07:28:41.657Z,19.60
2019-06-27T07:29:19.582Z,19.60
2019-06-27T07:29:57.885Z,19.60
2019-06-27T07:30:35.849Z,19.60
2019-06-27T07:31:18.236Z,19.60
2019-06-27T07:31:53.624Z,19.70
2019-06-27T07:32:31.127Z,19.60
2019-06-27T07:33:10.433Z,19.70
2019-06-27T07:33:48.974Z,19.70
2019-06-27T07:34:26.271Z,19.70
2019-06-27T07:35:04.541Z,19.80
2019-06-27T07:35:43.114Z,19.80
2019-06-27T07:36:20.564Z,19.80
2019-06-27T07:36:58.292Z,19.80
2019-06-27T07:37:36.574Z,19.70
2019-06-27T07:38:14.590Z,19.70
2019-06-27T07:38:52.411Z,19.70
2019-06-27T07:39:30.017Z,19.70
2019-06-27T07:40:08.026Z,19.70
2019-06-27T07:40:46.691Z,19.70
2019-06-27T07:41:24.807Z,19.70
2019-06-27T07:42:01.619Z,19.80
2019-06-27T07:42:39.776Z,19.70
2019-06-27T07:43:17.588Z,19.70
2019-06-27T07:43:55.128Z,19.80
2019-06-27T07:44:33.274Z,19.80
2019-06-27T07:45:11.081Z,19.90
2019-06-27T07:45:49.049Z,19.80
2019-06-27T07:46:26.893Z,19.80
2019-06-27T07:47:10.786Z,19.90
2019-06-27T07:47:47.265Z,19.90
2019-06-27T07:48:25.293Z,19.90
2019-06-27T07:49:03.093Z,19.80
2019-06-27T07:49:40.551Z,19.70
2019-06-27T07:50:19.067Z,19.70
2019-06-27T07:50:57.114Z,19.80
2019-06-27T07:51:34.516Z,19.70
2019-06-27T07:52:12.618Z,19.70
2019-06-27T07:52:50.714Z,19.70
2019-06-27T07:53:28.092Z,19.70
2019-06-27T07:54:06.074Z,19.70
2019-06-27T07:54:43.672Z,19.80
2019-06-27T07:55:24.330Z,19.70
2019-06-27T07:56:01.895Z,19.70
2019-06-27T07:56:40.094Z,19.70
2019-06-27T07:57:17.595Z,19.70
2019-06-27T07:57:55.958Z,19.70
2019-06-27T07:58:39.376Z,19.60
2019-06-27T07:59:16.650Z,19.60
2019-06-27T07:59:54.357Z,19.60
2019-06-27T08:00:32.222Z,19.60
2019-06-27T08:01:09.743Z,19.50
2019-06-27T08:01:47.901Z,19.50
2019-06-27T08:02:26.252Z,19.50
2019-06-27T08:03:03.755Z,19.40
2019-06-27T08:03:41.577Z,19.40
2019-06-27T08:04:19.460Z,19.40
2019-06-27T08:04:56.933Z,19.30
2019-06-27T08:05:34.927Z,19.30
2019-06-27T08:06:13.196Z,19.30
2019-06-27T08:06:50.684Z,19.30
2019-06-27T08:07:28.159Z,19.30
2019-06-27T08:08:06.681Z,19.30
2019-06-27T08:08:43.577Z,19.30
2019-06-27T08:09:21.854Z,19.30
2019-06-27T08:10:00.350Z,19.30
2019-06-27T08:10:37.519Z,19.40
2019-06-27T08:11:15.087Z,19.50
2019-06-27T08:11:53.495Z,19.40